createdAt,value
2023-03-11T00:00:50.607Z,96115.16
2023-03-11T00:03:20.694Z,96110.38
2023-03-11T00:05:49.054Z,96124.72
2023-03-11T00:08:20.172Z,96134.41
2023-03-11T00:10:50.111Z,96141.44
2023-03-11T00:13:19.977Z,96144.09
2023-03-11T00:15:50.986Z,96168.19
2023-03-11T00:18:19.752Z,96170.19
2023-03-11T00:20:48.558Z,96195.44
2023-03-11T00:23:17.755Z,96179.31
2023-03-11T00:25:47.590Z,96183.81
2023-03-11T00:28:17.088Z,96189.63
2023-03-11T00:30:47.947Z,96204.50
2023-03-11T00:33:17.958Z,96208.53
2023-03-11T00:35:46.301Z,96199.47
2023-03-11T00:38:17.865Z,96228.75
2023-03-11T00:40:48.833Z,96216.88
2023-03-11T00:43:18.127Z,96212.75
2023-03-11T00:45:48.026Z,96230.72
2023-03-11T00:48:16.570Z,96232.84
2023-03-11T00:50:45.188Z,96227.72
2023-03-11T00:53:14.190Z,96216.06
2023-03-11T00:55:42.759Z,96224.72
2023-03-11T00:58:13.652Z,96232.28
2023-03-11T01:00:42.195Z,96238.59
2023-03-11T01:03:12.033Z,96234.03
2023-03-11T01:05:40.567Z,96241.16
2023-03-11T01:08:08.801Z,96246.88
2023-03-11T01:10:37.686Z,96241.91
2023-03-11T01:13:06.688Z,96248.66
2023-03-11T01:15:42.510Z,96250.75
2023-03-11T01:18:15.228Z,96262.66
2023-03-11T01:20:44.202Z,96253.53
2023-03-11T01:23:13.937Z,96250.38
2023-03-11T01:25:42.506Z,96260.59
2023-03-11T01:28:11.714Z,96261.97
2023-03-11T01:30:43.327Z,96263.75
2023-03-11T01:33:17.984Z,96265.03
2023-03-11T01:35:47.239Z,96260.25
2023-03-11T01:38:16.062Z,96268.63
2023-03-11T01:40:47.626Z,96262.09
2023-03-11T01:43:54.599Z,96274.25
2023-03-11T01:46:25.311Z,96275.38
2023-03-11T01:48:57.737Z,96282.97
2023-03-11T01:51:30.416Z,96287.53
2023-03-11T01:54:04.045Z,96285.16
2023-03-11T01:56:33.237Z,96285.31
2023-03-11T01:59:02.083Z,96276.09
2023-03-11T02:01:31.031Z,96281.03
2023-03-11T02:04:04.096Z,96269.00
2023-03-11T02:06:34.687Z,96273.00
2023-03-11T02:09:03.371Z,96270.06
2023-03-11T02:11:32.371Z,96256.25
2023-03-11T02:14:04.784Z,96268.41
2023-03-11T02:16:33.425Z,96274.34
2023-03-11T02:19:25.589Z,96273.91
2023-03-11T02:21:54.402Z,96279.16
2023-03-11T02:24:30.776Z,96267.44
2023-03-11T02:27:03.048Z,96280.59
2023-03-11T02:29:31.851Z,96283.06
2023-03-11T02:32:01.382Z,96282.44
2023-03-11T02:34:32.677Z,96290.47
2023-03-11T02:37:02.189Z,96290.66
2023-03-11T02:39:35.648Z,96293.72
2023-03-11T02:42:11.261Z,96294.19
2023-03-11T02:44:40.898Z,96285.75
2023-03-11T02:47:09.283Z,96287.94
2023-03-11T02:49:38.054Z,96296.25
2023-03-11T02:52:07.708Z,96282.34
2023-03-11T02:54:36.055Z,96282.34
2023-03-11T02:57:06.021Z,96291.41
2023-03-11T02:59:34.264Z,96286.81
2023-03-11T03:02:02.534Z,96290.81
2023-03-11T03:04:30.779Z,96282.94
2023-03-11T03:06:59.015Z,96287.69
2023-03-11T03:09:27.456Z,96301.50
2023-03-11T03:11:55.710Z,96295.56
2023-03-11T03:14:25.376Z,96300.53
2023-03-11T03:16:54.332Z,96302.34
2023-03-11T03:19:22.695Z,96301.91
2023-03-11T03:21:50.993Z,96302.84
2023-03-11T03:24:19.223Z,96311.03
2023-03-11T03:26:47.476Z,96314.19
2023-03-11T03:29:15.733Z,96316.53
2023-03-11T03:31:45.502Z,96318.31
2023-03-11T03:34:13.832Z,96323.13
2023-03-11T03:36:42.087Z,96323.81
2023-03-11T03:39:10.440Z,96328.25
2023-03-11T03:41:38.819Z,96332.16
2023-03-11T03:44:07.135Z,96331.22
2023-03-11T03:46:35.372Z,96335.50
2023-03-11T03:49:05.347Z,96330.31
2023-03-11T03:51:33.628Z,96330.00
2023-03-11T03:54:01.925Z,96332.94
2023-03-11T03:56:30.329Z,96340.81
2023-03-11T03:58:58.597Z,96341.34
2023-03-11T04:01:26.818Z,96333.91
2023-03-11T04:03:55.100Z,96336.38
2023-03-11T04:06:27.320Z,96345.81
2023-03-11T04:08:56.480Z,96383.28
2023-03-11T04:11:24.900Z,96391.19
2023-03-11T04:13:53.173Z,96381.41
2023-03-11T04:16:24.285Z,96371.88
2023-03-11T04:18:52.624Z,96368.75
2023-03-11T04:21:20.934Z,96371.78
2023-03-11T04:23:51.050Z,96384.06
2023-03-11T04:26:19.326Z,96378.03
2023-03-11T04:28:47.616Z,96383.97
2023-03-11T04:31:16.101Z,96381.19
2023-03-11T04:33:44.418Z,96387.25
2023-03-11T04:36:14.247Z,96388.53
2023-03-11T04:38:42.533Z,96393.75
2023-03-11T04:41:12.199Z,96398.88
2023-03-11T04:43:40.452Z,96389.34
2023-03-11T04:46:08.749Z,96384.13
2023-03-11T04:48:37.043Z,96396.38
2023-03-11T04:51:05.863Z,96392.41
2023-03-11T04:53:34.155Z,96389.91
2023-03-11T04:56:02.465Z,96387.16
2023-03-11T04:58:32.169Z,96383.84
2023-03-11T05:01:00.444Z,96395.31
2023-03-11T05:03:28.689Z,96402.47
2023-03-11T05:05:57.517Z,96403.72
2023-03-11T05:08:25.927Z,96409.53
2023-03-11T05:10:54.605Z,96419.47
2023-03-11T05:13:23.381Z,96422.22
2023-03-11T05:15:53.088Z,96426.50
2023-03-11T05:18:21.578Z,96431.06
2023-03-11T05:20:49.883Z,96433.97
2023-03-11T05:23:18.221Z,96443.75
2023-03-11T05:25:46.797Z,96447.63
2023-03-11T05:28:15.002Z,96447.63
2023-03-11T05:30:43.247Z,96453.84
2023-03-11T05:33:12.892Z,96457.53
2023-03-11T05:35:41.173Z,96451.75
2023-03-11T05:38:09.457Z,96455.19
2023-03-11T05:40:37.705Z,96462.38
2023-03-11T05:43:06.111Z,96469.41
2023-03-11T05:45:34.371Z,96469.41
2023-03-11T05:48:02.621Z,96471.34
2023-03-11T05:50:32.232Z,96479.59
2023-03-11T05:53:00.436Z,96474.22
2023-03-11T05:55:28.733Z,96481.69
2023-03-11T05:57:57.005Z,96485.53
2023-03-11T06:00:25.338Z,96485.91
2023-03-11T06:02:54.025Z,96491.84
2023-03-11T06:05:22.559Z,96497.34
2023-03-11T06:07:53.238Z,96505.91
2023-03-11T06:10:21.491Z,96496.22
2023-03-11T06:12:49.711Z,96505.19
2023-03-11T06:15:18.203Z,96502.97
2023-03-11T06:17:46.495Z,96512.91
2023-03-11T06:20:15.049Z,96516.78
2023-03-11T06:22:43.315Z,96518.69
2023-03-11T06:25:13.026Z,96515.13
2023-03-11T06:27:41.368Z,96517.63
2023-03-11T06:30:11.635Z,96532.22
2023-03-11T06:32:39.983Z,96536.63
2023-03-11T06:35:09.532Z,96546.53
2023-03-11T06:37:38.105Z,96552.09
2023-03-11T06:40:08.461Z,96554.31
2023-03-11T06:42:38.248Z,96552.94
2023-03-11T06:45:07.929Z,96556.94
2023-03-11T06:47:36.232Z,96563.69
2023-03-11T06:50:07.399Z,96560.81
2023-03-11T06:52:35.930Z,96553.78
2023-03-11T06:55:04.952Z,96560.69
2023-03-11T06:57:34.030Z,96564.56
2023-03-11T07:00:06.173Z,96575.03
2023-03-11T07:02:34.400Z,96581.56
2023-03-11T07:05:02.834Z,96589.31
2023-03-11T07:07:31.073Z,96588.66
2023-03-11T07:09:59.393Z,96595.84
2023-03-11T07:12:27.780Z,96593.50
2023-03-11T07:14:57.279Z,96600.13
2023-03-11T07:17:28.429Z,96594.34
2023-03-11T07:19:56.782Z,96601.16
2023-03-11T07:22:25.039Z,96594.66
2023-03-11T07:24:53.491Z,96601.88
2023-03-11T07:27:22.492Z,96608.78
2023-03-11T07:29:50.742Z,96612.25
2023-03-11T07:32:19.102Z,96606.06
2023-03-11T07:34:48.751Z,96611.72
2023-03-11T07:37:17.020Z,96614.63
2023-03-11T07:39:45.309Z,96615.19
2023-03-11T07:42:13.583Z,96615.06
2023-03-11T07:44:41.831Z,96607.16
2023-03-11T07:47:10.043Z,96609.66
2023-03-11T07:49:38.419Z,96618.09
2023-03-11T07:52:08.839Z,96615.59
2023-03-11T07:54:37.106Z,96620.25
2023-03-11T07:57:05.832Z,96624.91
2023-03-11T07:59:34.062Z,96626.25
2023-03-11T08:02:04.811Z,96640.06
2023-03-11T08:04:33.149Z,96641.00
2023-03-11T08:07:01.421Z,96640.81
2023-03-11T08:09:31.131Z,96640.81
2023-03-11T08:11:59.336Z,96630.63
2023-03-11T08:14:27.610Z,96644.63
2023-03-11T08:16:55.809Z,96649.44
2023-03-11T08:19:24.058Z,96653.22
2023-03-11T08:21:52.306Z,96653.34
2023-03-11T08:24:20.577Z,96659.13
2023-03-11T08:26:50.276Z,96664.84
2023-03-11T08:29:18.526Z,96661.56
2023-03-11T08:31:46.794Z,96658.78
2023-03-11T08:34:15.768Z,96668.94
2023-03-11T08:36:44.828Z,96670.56
2023-03-11T08:39:13.131Z,96675.78
2023-03-11T08:41:41.512Z,96672.16
2023-03-11T08:44:11.206Z,96673.59
2023-03-11T08:46:40.575Z,96679.50
2023-03-11T08:49:09.908Z,96682.16
2023-03-11T08:51:38.634Z,96681.03
2023-03-11T08:54:07.165Z,96677.28
2023-03-11T08:56:35.397Z,96686.03
2023-03-11T08:59:03.940Z,96686.25
2023-03-11T09:01:33.589Z,96688.44
2023-03-11T09:04:01.841Z,96687.41
2023-03-11T09:06:30.877Z,96691.63
2023-03-11T09:08:59.294Z,96698.38
2023-03-11T09:11:28.005Z,96693.41
2023-03-11T09:13:56.368Z,96706.97
2023-03-11T09:16:25.900Z,96701.59
2023-03-11T09:18:55.529Z,96709.13
2023-03-11T09:21:24.050Z,96708.31
2023-03-11T09:23:52.344Z,96706.88
2023-03-11T09:26:20.604Z,96712.31
2023-03-11T09:28:49.912Z,96720.38
2023-03-11T09:31:19.180Z,96715.75
2023-03-11T09:33:48.109Z,96717.63
2023-03-11T09:36:21.221Z,96719.97
2023-03-11T09:38:50.443Z,96735.94
2023-03-11T09:41:28.793Z,96730.31
2023-03-11T09:44:15.603Z,96734.53
2023-03-11T09:47:30.372Z,96734.63
2023-03-11T09:50:13.055Z,96735.88
2023-03-11T09:52:49.550Z,96736.72
2023-03-11T09:55:37.394Z,96731.75
2023-03-11T09:58:14.369Z,96733.09
2023-03-11T10:00:43.181Z,96741.44
2023-03-11T10:03:27.330Z,96736.13
2023-03-11T10:06:04.787Z,96734.84
2023-03-11T10:08:43.237Z,96732.03
2023-03-11T10:11:30.809Z,96732.03
2023-03-11T10:14:12.111Z,96727.47
2023-03-11T10:16:52.117Z,96737.47
2023-03-11T10:19:35.847Z,96730.91
2023-03-11T10:22:15.129Z,96732.88
2023-03-11T10:25:01.135Z,96725.19
2023-03-11T10:27:34.180Z,96737.63
2023-03-11T10:30:11.365Z,96736.72
2023-03-11T10:32:46.319Z,96743.09
2023-03-11T10:35:20.167Z,96744.00
2023-03-11T10:37:55.237Z,96748.00
2023-03-11T10:40:36.260Z,96739.31
2023-03-11T10:43:10.726Z,96740.81
2023-03-11T10:45:44.682Z,96746.31
2023-03-11T10:48:16.317Z,96754.13
2023-03-11T10:50:51.742Z,96749.22
2023-03-11T10:53:21.584Z,96730.44
2023-03-11T10:55:53.856Z,96737.28
2023-03-11T10:58:25.454Z,96744.13
2023-03-11T11:01:06.570Z,96740.84
2023-03-11T11:03:36.006Z,96744.75
2023-03-11T11:06:07.445Z,96753.72
2023-03-11T11:08:36.028Z,96751.63
2023-03-11T11:11:22.728Z,96757.63
2023-03-11T11:13:58.224Z,96757.50
2023-03-11T11:16:27.268Z,96753.56
2023-03-11T11:19:01.509Z,96749.47
2023-03-11T11:21:33.488Z,96765.69
2023-03-11T11:24:13.536Z,96754.28
2023-03-11T11:26:43.908Z,96754.44
2023-03-11T11:29:21.928Z,96755.63
2023-03-11T11:31:50.330Z,96751.97
2023-03-11T11:34:31.378Z,96749.47
2023-03-11T11:37:03.475Z,96758.09
2023-03-11T11:39:38.391Z,96752.47
2023-03-11T11:42:11.729Z,96759.91
2023-03-11T11:44:40.283Z,96751.13
2023-03-11T11:47:18.054Z,96761.41
2023-03-11T11:49:54.563Z,96762.25
2023-03-11T11:52:28.396Z,96762.59
2023-03-11T11:55:05.367Z,96777.31
2023-03-11T11:57:35.742Z,96763.94
2023-03-11T12:00:09.523Z,96766.38
2023-03-11T12:02:56.139Z,96762.88
2023-03-11T12:05:30.986Z,96761.56
2023-03-11T12:08:14.585Z,96765.34
2023-03-11T12:10:49.313Z,96769.28
2023-03-11T12:13:49.550Z,96766.94
2023-03-11T12:16:32.500Z,96763.25
2023-03-11T12:19:11.558Z,96761.88
2023-03-11T12:22:13.200Z,96759.69
2023-03-11T12:25:06.624Z,96761.78
2023-03-11T12:27:43.314Z,96754.31
2023-03-11T12:30:19.133Z,96760.25
2023-03-11T12:32:52.698Z,96765.63
2023-03-11T12:35:27.693Z,96759.16
2023-03-11T12:38:15.908Z,96766.25
2023-03-11T12:41:06.066Z,96762.75
2023-03-11T12:44:28.870Z,96766.03
2023-03-11T12:47:24.030Z,96767.13
2023-03-11T12:49:55.295Z,96762.53
2023-03-11T12:52:30.123Z,96763.50
2023-03-11T12:55:38.582Z,96771.13
2023-03-11T12:58:52.144Z,96769.34
2023-03-11T13:01:45.313Z,96772.22
2023-03-11T13:04:47.520Z,96765.47
2023-03-11T13:07:41.899Z,96762.97
2023-03-11T13:10:20.422Z,96753.28
2023-03-11T13:12:50.640Z,96750.03
2023-03-11T13:15:41.664Z,96743.41
2023-03-11T13:18:24.562Z,96746.19
2023-03-11T13:20:59.332Z,96769.13
2023-03-11T13:23:40.571Z,96755.72
2023-03-11T13:26:35.075Z,96755.72
2023-03-11T13:29:52.998Z,96762.59
2023-03-11T13:32:41.131Z,96763.59
2023-03-11T13:35:35.148Z,96761.22
2023-03-11T13:38:36.187Z,96768.13
2023-03-11T13:41:13.267Z,96770.38
2023-03-11T13:43:47.361Z,96768.69
2023-03-11T13:46:29.185Z,96783.47
2023-03-11T13:49:07.663Z,96782.44
2023-03-11T13:51:43.419Z,96798.28
2023-03-11T13:54:34.170Z,96789.00
2023-03-11T13:57:04.264Z,96794.91
2023-03-11T13:59:35.889Z,96795.06
2023-03-11T14:02:18.123Z,96795.66
2023-03-11T14:04:53.172Z,96801.75
2023-03-11T14:07:31.777Z,96797.59
2023-03-11T14:10:34.906Z,96805.69
2023-03-11T14:13:16.807Z,96805.28
2023-03-11T14:15:53.668Z,96810.22
2023-03-11T14:18:43.771Z,96813.84
2023-03-11T14:21:17.155Z,96816.09
2023-03-11T14:23:48.171Z,96823.47
2023-03-11T14:26:21.098Z,96819.47
2023-03-11T14:28:53.807Z,96815.84
2023-03-11T14:31:32.268Z,96823.25
2023-03-11T14:34:06.743Z,96825.59
2023-03-11T14:36:43.506Z,96815.03
2023-03-11T14:39:31.458Z,96819.91
2023-03-11T14:42:08.122Z,96818.13
2023-03-11T14:44:40.764Z,96819.47
2023-03-11T14:47:14.613Z,96823.31
2023-03-11T14:49:43.701Z,96811.34
2023-03-11T14:52:20.204Z,96831.16
2023-03-11T14:54:50.117Z,96833.66
2023-03-11T14:57:27.223Z,96837.94
2023-03-11T14:59:57.542Z,96833.34
2023-03-11T15:02:40.960Z,96838.50
2023-03-11T15:05:19.023Z,96838.34
2023-03-11T15:07:48.746Z,96837.50
2023-03-11T15:10:17.234Z,96841.47
2023-03-11T15:12:47.048Z,96850.69
2023-03-11T15:15:27.229Z,96851.97
2023-03-11T15:17:58.302Z,96854.75
2023-03-11T15:20:31.019Z,96873.53
2023-03-11T15:23:02.465Z,96865.22
2023-03-11T15:25:35.165Z,96865.66
2023-03-11T15:28:24.357Z,96868.75
2023-03-11T15:30:53.545Z,96868.09
2023-03-11T15:33:24.053Z,96874.75
2023-03-11T15:35:52.461Z,96868.53
2023-03-11T15:38:25.495Z,96874.91
2023-03-11T15:40:56.814Z,96878.53
2023-03-11T15:43:30.533Z,96881.47
2023-03-11T15:46:00.386Z,96884.41
2023-03-11T15:48:31.439Z,96885.09
2023-03-11T15:51:01.971Z,96885.38
2023-03-11T15:53:31.791Z,96890.53
2023-03-11T15:56:08.330Z,96892.31
2023-03-11T15:58:39.488Z,96899.00
2023-03-11T16:01:08.412Z,96903.16
2023-03-11T16:03:39.012Z,96915.06
2023-03-11T16:06:07.953Z,96909.56
2023-03-11T16:08:36.417Z,96914.00
2023-03-11T16:11:04.882Z,96922.75
2023-03-11T16:13:33.281Z,96912.63
2023-03-11T16:16:04.761Z,96915.94
2023-03-11T16:18:33.811Z,96920.69
2023-03-11T16:21:08.513Z,96923.34
2023-03-11T16:23:50.678Z,96930.53
2023-03-11T16:26:21.002Z,96926.25
2023-03-11T16:28:49.622Z,96928.06
2023-03-11T16:31:19.474Z,96935.81
2023-03-11T16:33:47.906Z,96928.75
2023-03-11T16:36:16.373Z,96937.78
2023-03-11T16:38:47.359Z,96932.50
2023-03-11T16:41:16.629Z,96944.00
2023-03-11T16:43:45.216Z,96945.00
2023-03-11T16:46:13.748Z,96947.78
2023-03-11T16:48:43.674Z,96941.66
2023-03-11T16:51:12.145Z,96950.72
2023-03-11T16:53:40.562Z,96952.50
2023-03-11T16:56:09.246Z,96951.00
2023-03-11T16:58:37.619Z,96951.00
2023-03-11T17:01:06.284Z,96949.34
2023-03-11T17:03:42.587Z,96944.88
2023-03-11T17:06:12.816Z,96949.34
2023-03-11T17:08:41.331Z,96959.88
2023-03-11T17:11:17.606Z,96960.97
2023-03-11T17:13:46.342Z,96969.88
2023-03-11T17:16:15.572Z,96972.66
2023-03-11T17:18:43.962Z,96986.94
2023-03-11T17:21:16.109Z,96989.72
2023-03-11T17:23:45.290Z,96988.16
2023-03-11T17:26:16.393Z,97002.47
2023-03-11T17:28:45.062Z,97010.50
2023-03-11T17:31:14.486Z,97024.69
2023-03-11T17:33:43.649Z,97023.13
2023-03-11T17:36:17.081Z,97018.28
2023-03-11T17:38:46.511Z,97034.22
2023-03-11T17:41:17.423Z,97038.13
2023-03-11T17:43:46.675Z,97049.78
2023-03-11T17:46:17.835Z,97050.06
2023-03-11T17:48:48.620Z,97053.69
2023-03-11T17:51:20.775Z,97044.25
2023-03-11T17:53:51.646Z,97038.97
2023-03-11T17:56:21.423Z,97028.72
2023-03-11T17:58:50.795Z,97029.81
2023-03-11T18:01:23.282Z,97042.16
2023-03-11T18:03:52.339Z,97036.88
2023-03-11T18:06:23.393Z,97047.56
2023-03-11T18:08:52.533Z,97049.38
2023-03-11T18:11:23.854Z,97042.44
2023-03-11T18:13:53.252Z,97049.53
2023-03-11T18:16:23.939Z,97051.31
2023-03-11T18:18:52.410Z,97051.19
2023-03-11T18:21:25.085Z,97059.94
2023-03-11T18:23:55.217Z,97056.31
2023-03-11T18:26:25.240Z,97062.56
2023-03-11T18:28:54.788Z,97063.22
2023-03-11T18:31:24.827Z,97071.13
2023-03-11T18:33:55.795Z,97065.88
2023-03-11T18:36:28.129Z,97074.63
2023-03-11T18:38:58.746Z,97071.13
2023-03-11T18:41:28.467Z,97076.41
2023-03-11T18:43:58.294Z,97079.03
2023-03-11T18:46:29.059Z,97080.03
2023-03-11T18:48:59.509Z,97074.75
2023-03-11T18:51:31.568Z,97079.31
2023-03-11T18:54:01.654Z,97080.28
2023-03-11T18:56:32.095Z,97076.81
2023-03-11T18:59:01.178Z,97083.34
2023-03-11T19:01:29.779Z,97086.09
2023-03-11T19:04:00.452Z,97087.09
2023-03-11T19:06:30.756Z,97081.25
2023-03-11T19:08:59.512Z,97089.16
2023-03-11T19:11:28.131Z,97092.06
2023-03-11T19:13:57.378Z,97092.34
2023-03-11T19:16:27.645Z,97089.13
2023-03-11T19:18:56.622Z,97090.25
2023-03-11T19:21:25.861Z,97098.16
2023-03-11T19:23:56.560Z,97099.41
2023-03-11T19:26:43.116Z,97102.97
2023-03-11T19:29:12.798Z,97100.78
2023-03-11T19:31:41.065Z,97095.50
2023-03-11T19:34:09.354Z,97092.16
2023-03-11T19:36:37.654Z,97093.97
2023-03-11T19:39:07.710Z,97096.72
2023-03-11T19:41:36.194Z,97102.97
2023-03-11T19:44:04.601Z,97110.03
2023-03-11T19:46:34.689Z,97106.59
2023-03-11T19:49:03.851Z,97103.09
2023-03-11T19:51:46.391Z,97104.91
2023-03-11T19:54:18.168Z,97107.78
2023-03-11T19:56:46.817Z,97108.63
2023-03-11T19:59:15.529Z,97115.81
2023-03-11T20:01:43.919Z,97112.50
2023-03-11T20:04:12.585Z,97121.34
2023-03-11T20:06:41.109Z,97115.41
2023-03-11T20:09:09.485Z,97119.00
2023-03-11T20:11:41.404Z,97123.56
2023-03-11T20:14:11.410Z,97125.38
2023-03-11T20:16:40.230Z,97132.56
2023-03-11T20:19:08.970Z,97131.16
2023-03-11T20:21:39.335Z,97134.06
2023-03-11T20:24:08.973Z,97135.44
2023-03-11T20:26:37.820Z,97139.97
2023-03-11T20:29:08.050Z,97137.75
2023-03-11T20:31:37.454Z,97139.78
2023-03-11T20:34:05.968Z,97142.84
2023-03-11T20:36:35.118Z,97142.28
2023-03-11T20:39:05.853Z,97141.69
2023-03-11T20:41:38.734Z,97138.63
2023-03-11T20:44:11.897Z,97142.47
2023-03-11T20:46:40.334Z,97145.34
2023-03-11T20:49:08.793Z,97145.75
2023-03-11T20:51:39.640Z,97149.59
2023-03-11T20:54:09.417Z,97140.44
2023-03-11T20:56:37.972Z,97147.75
2023-03-11T20:59:07.782Z,97149.94
2023-03-11T21:01:36.726Z,97157.13
2023-03-11T21:04:05.997Z,97147.72
2023-03-11T21:06:37.294Z,97156.78
2023-03-11T21:09:08.453Z,97160.66
2023-03-11T21:11:36.802Z,97164.75
2023-03-11T21:14:07.968Z,97169.16
2023-03-11T21:16:37.236Z,97167.84
2023-03-11T21:19:08.441Z,97163.78
2023-03-11T21:21:37.306Z,97161.66
2023-03-11T21:24:06.852Z,97160.38
2023-03-11T21:26:35.278Z,97165.91
2023-03-11T21:29:04.254Z,97162.81
2023-03-11T21:31:34.207Z,97168.47
2023-03-11T21:34:02.993Z,97176.84
2023-03-11T21:36:31.542Z,97172.06
2023-03-11T21:39:02.884Z,97175.06
2023-03-11T21:41:32.014Z,97175.44
2023-03-11T21:44:00.437Z,97186.31
2023-03-11T21:46:33.386Z,97184.19
2023-03-11T21:49:02.392Z,97181.91
2023-03-11T21:51:31.950Z,97185.84
2023-03-11T21:54:00.433Z,97198.41
2023-03-11T21:56:29.402Z,97189.09
2023-03-11T21:58:57.906Z,97191.13
2023-03-11T22:01:26.467Z,97194.84
2023-03-11T22:03:56.676Z,97195.09
2023-03-11T22:06:25.133Z,97197.22
2023-03-11T22:08:54.016Z,97198.44
2023-03-11T22:11:22.429Z,97193.28
2023-03-11T22:13:54.089Z,97193.78
2023-03-11T22:16:24.252Z,97194.81
2023-03-11T22:18:53.248Z,97192.31
2023-03-11T22:21:23.237Z,97189.00
2023-03-11T22:23:51.539Z,97201.50
2023-03-11T22:26:19.816Z,97199.00
2023-03-11T22:28:48.217Z,97206.31
2023-03-11T22:31:19.078Z,97202.94
2023-03-11T22:33:47.784Z,97198.91
2023-03-11T22:36:16.157Z,97205.19
2023-03-11T22:38:45.862Z,97210.56
2023-03-11T22:41:16.851Z,97215.09
2023-03-11T22:43:45.183Z,97212.59
2023-03-11T22:46:13.645Z,97223.34
2023-03-11T22:48:42.106Z,97220.94
2023-03-11T22:51:10.653Z,97213.19
2023-03-11T22:53:38.942Z,97214.97
2023-03-11T22:56:14.386Z,97212.34
2023-03-11T22:58:43.416Z,97209.00
2023-03-11T23:01:12.106Z,97211.50
2023-03-11T23:03:41.166Z,97218.44
2023-03-11T23:06:14.484Z,97223.69
2023-03-11T23:08:42.777Z,97217.47
2023-03-11T23:11:18.567Z,97223.69
2023-03-11T23:13:46.832Z,97230.69
2023-03-11T23:16:18.229Z,97231.78
2023-03-11T23:18:48.363Z,97240.56
2023-03-11T23:21:18.509Z,97239.88
2023-03-11T23:23:47.474Z,97239.88
2023-03-11T23:26:18.164Z,97237.25
2023-03-11T23:28:47.270Z,97240.00
2023-03-11T23:31:17.413Z,97235.78
2023-03-11T23:33:46.699Z,97240.22
2023-03-11T23:36:18.350Z,97241.28
2023-03-11T23:38:47.060Z,97242.22
2023-03-11T23:41:19.780Z,97243.31
2023-03-11T23:43:48.565Z,97246.16
2023-03-11T23:46:17.149Z,97241.72
2023-03-11T23:48:45.565Z,97243.53
2023-03-11T23:51:14.130Z,97241.72
2023-03-11T23:53:42.480Z,97246.03
2023-03-11T23:56:13.915Z,97241.72
2023-03-11T23:58:43.766Z,97252.09
